Date,TemperatureHighF,TemperatureAvgF,TemperatureLowF,DewpointHighF,DewpointAvgF,DewpointLowF,HumidityHigh,HumidityAvg,HumidityLow,PressureMaxIn,PressureMinIn,WindSpeedMaxMPH,WindSpeedAvgMPH,GustSpeedMaxMPH,PrecipitationSumIn
2013-1-1,38,29,20,22,16,12,76,59,41,30.47,30.21,8,2,11,0.00
2013-1-2,37,25,14,13,10,7,76,55,29,30.53,30.38,5,2,9,0.00
2013-1-3,37,26,16,16,11,7,71,56,38,30.62,30.49,4,1,7,0.00
2013-1-4,36,24,12,12,6,1,68,47,29,30.64,30.46,6,2,9,0.00
2013-1-5,44,29,15,10,7,4,66,41,22,30.67,30.53,4,1,8,0.00
2013-1-6,44,29,15,12,9,5,68,44,24,30.64,30.34,4,1,8,0.00
2013-1-7,52,37,28,19,14,10,51,39,26,30.34,30.07,4,1,6,0.00
2013-1-8,50,36,26,18,15,11,63,43,21,30.40,30.08,8,4,12,0.00
2013-1-9,54,38,24,17,14,12,59,40,22,30.59,30.27,5,2,11,0.00
2013-1-10,46,36,24,23,15,12,59,43,28,30.26,29.85,8,2,10,0.00
2013-1-11,44,35,21,25,8,-8,59,33,18,30.04,29.71,16,7,23,0.00
2013-1-12,34,22,12,3,-3,-10,51,33,17,30.30,30.04,5,2,10,0.00
2013-1-13,32,21,9,4,-1,-4,56,39,26,30.40,30.24,5,1,10,0.00
2013-1-14,30,22,16,23,11,0,88,65,43,30.38,30.20,7,2,9,0.01
2013-1-15,26,17,6,7,3,0,82,56,36,30.73,30.38,8,2,14,0.00
2013-1-16,40,25,10,16,9,2,73,51,35,30.80,30.62,6,1,10,0.00
2013-1-17,51,32,18,19,15,10,71,52,25,30.79,30.60,3,1,6,0.00
2013-1-18,53,36,21,21,18,15,76,52,26,30.60,30.39,4,1,5,0.00
2013-1-19,54,37,27,21,19,15,67,49,21,30.53,30.40,7,2,9,0.00
2013-1-20,56,37,20,20,15,11,74,44,18,30.48,30.31,4,1,8,0.00
2013-1-21,56,38,20,19,14,11,65,39,19,30.47,30.31,7,2,9,0.00
2013-1-22,60,41,24,19,15,9,72,40,15,30.46,30.32,5,1,8,0.00
2013-1-23,62,40,24,16,13,9,63,36,13,30.51,30.37,4,1,5,0.00
2013-1-24,63,45,26,35,18,10,57,37,17,30.45,30.26,6,1,7,0.00
2013-1-25,59,49,38,40,35,30,75,59,48,30.32,30.15,3,0,5,0.00
2013-1-26,56,48,43,49,40,35,89,74,60,30.17,29.87,12,2,14,0.13
2013-1-27,60,50,42,42,38,33,86,66,36,30.00,29.88,10,3,13,0.00
2013-1-28,56,46,38,39,33,18,84,62,34,29.91,29.70,14,6,22,0.00
2013-1-29,38,33,28,23,15,4,69,48,27,30.14,29.75,14,6,27,0.00
2013-1-30,43,33,25,18,15,8,63,48,30,30.42,30.15,14,4,21,0.00
2013-1-31,55,38,24,25,20,16,76,51,24,30.50,30.35,8,2,13,0.00
2013-2-1,58,40,24,23,20,16,80,49,22,30.41,30.27,9,2,11,0.00
2013-2-2,59,44,29,23,21,19,68,42,21,30.47,30.35,6,1,13,0.00
2013-2-3,52,42,30,30,22,18,63,46,25,30.38,30.06,5,1,13,0.00
2013-2-4,59,46,35,30,26,18,74,47,21,30.17,30.02,7,3,9,0.00
2013-2-5,62,46,32,24,20,15,66,39,17,30.16,30.01,4,1,7,0.00
2013-2-6,61,45,28,29,22,16,63,42,26,30.05,29.89,9,2,10,0.00
2013-2-7,59,46,32,27,22,13,72,42,17,30.19,30.04,6,2,10,0.00
2013-2-8,58,47,35,24,21,18,55,38,26,30.15,29.76,15,4,23,0.00
2013-2-9,50,38,30,24,16,5,59,42,21,29.94,29.64,20,7,26,0.00
2013-2-10,44,36,29,23,15,10,68,45,26,30.11,29.94,9,4,13,0.00
2013-2-11,46,34,21,23,18,3,82,56,17,30.18,30.03,11,3,16,0.00
2013-2-12,43,34,25,24,14,7,74,47,23,30.34,30.09,10,4,13,0.00
2013-2-13,49,37,22,18,14,10,60,40,25,30.36,30.19,10,4,14,0.00
2013-2-14,52,41,26,21,18,15,66,42,23,30.30,30.14,12,4,18,0.00
2013-2-15,52,41,27,24,14,2,71,39,13,30.48,30.30,14,3,21,0.00
2013-2-16,60,42,26,14,8,-2,54,28,9,30.55,30.22,4,1,7,0.00
2013-2-17,61,43,24,9,4,-2,46,23,8,30.24,29.78,12,4,14,0.00
2013-2-18,53,44,34,19,-2,-27,45,18,3,30.14,29.87,12,4,27,0.00
2013-2-19,60,43,26,35,7,-9,66,26,10,30.16,29.79,16,6,27,0.00
2013-2-20,51,44,35,36,29,15,74,58,25,29.80,29.48,16,6,20,0.00
2013-2-21,48,36,28,28,24,20,93,64,34,30.00,29.58,11,4,18,0.12
2013-2-22,45,36,30,24,22,12,72,57,29,30.18,29.99,10,3,13,0.00
2013-2-23,48,37,23,19,14,9,67,42,23,30.24,29.83,9,2,14,0.00
2013-2-24,43,36,29,26,16,5,89,48,24,30.01,29.72,13,6,19,0.00
2013-2-25,50,38,27,26,12,1,86,41,14,30.24,30.02,8,3,12,0.01
2013-2-26,49,36,24,17,7,-8,68,34,12,30.23,29.92,16,5,22,0.00
2013-2-27,47,35,22,11,6,0,59,32,16,30.44,30.23,7,1,13,0.00
2013-2-28,55,40,26,9,5,-4,42,25,9,30.49,30.33,10,3,16,0.00
2013-3-1,61,47,35,22,15,7,37,27,18,30.47,30.28,9,4,12,0.00
2013-3-2,67,50,32,24,22,19,61,35,17,30.45,30.18,5,1,7,0.00
2013-3-3,70,52,34,24,17,-6,57,30,5,30.19,29.86,11,3,17,0.00
2013-3-4,63,56,48,25,21,16,36,26,16,30.05,29.71,11,4,18,0.00
2013-3-5,61,48,32,23,19,10,66,35,13,30.33,30.06,7,2,10,0.00
2013-3-6,67,54,44,27,23,17,40,30,18,30.20,29.89,8,3,12,0.00
2013-3-7,71,56,36,23,19,16,50,27,13,30.04,29.82,9,3,14,0.00
2013-3-8,61,49,39,44,27,15,86,47,21,29.92,29.69,14,4,17,0.17
2013-3-9,47,40,34,34,25,17,76,55,31,30.07,29.79,11,4,15,0.00
2013-3-10,53,42,30,29,24,15,83,54,25,30.25,30.06,9,2,10,0.00
2013-3-11,65,48,31,22,17,8,61,33,11,30.27,30.03,9,3,10,0.00
2013-3-12,68,54,37,25,22,20,54,32,17,30.23,30.09,7,2,12,0.00
2013-3-13,72,55,37,27,24,17,62,33,15,30.34,30.15,6,2,11,0.00
2013-3-14,76,58,42,25,19,12,45,25,9,30.30,30.10,6,2,8,0.00
2013-3-15,79,60,40,22,16,6,40,21,6,30.14,29.85,5,1,8,0.00
2013-3-16,73,61,48,35,22,15,47,23,13,29.86,29.62,12,4,16,0.00
2013-3-17,70,56,46,36,21,-17,62,35,3,29.79,29.61,12,4,20,0.00
2013-3-18,68,54,39,13,7,1,33,17,7,29.96,29.79,10,3,16,0.00
2013-3-19,63,52,42,19,11,5,32,20,13,30.17,29.95,9,2,14,0.00
2013-3-20,63,51,33,27,19,15,49,30,18,30.26,29.86,8,2,10,0.00
2013-3-21,73,61,51,33,19,-7,43,24,4,29.86,29.52,11,4,16,0.00
2013-3-22,67,53,36,28,14,5,39,22,10,29.76,29.55,14,4,20,0.00
2013-3-23,53,42,33,29,4,-16,52,24,8,30.15,29.67,18,7,22,0.00
2013-3-24,55,40,25,1,-5,-12,28,15,9,30.27,30.02,12,3,18,0.00
2013-3-25,57,42,26,12,8,1,47,26,15,30.32,30.14,9,2,12,0.00
2013-3-26,66,50,33,14,10,8,36,22,11,30.27,29.95,12,5,14,0.00
2013-3-27,71,59,44,17,12,6,31,17,9,30.05,29.87,9,3,14,0.00
2013-3-28,72,62,47,24,16,9,29,17,9,30.03,29.88,10,2,14,0.00
2013-3-29,75,62,47,25,21,14,41,23,10,30.09,29.92,6,2,9,0.00
2013-3-30,74,60,42,28,21,16,43,24,12,30.09,29.88,8,2,9,0.00
2013-3-31,74,62,50,33,28,26,42,29,18,30.00,29.82,7,2,9,0.00
2013-4-1,76,64,48,30,19,3,41,21,7,29.94,29.70,10,2,11,0.00
2013-4-2,68,58,49,25,17,-2,32,21,6,29.90,29.68,12,4,16,0.00
2013-4-3,68,54,40,32,27,19,66,40,16,30.09,29.90,7,3,12,0.00
2013-4-4,74,58,42,30,21,9,57,28,9,30.20,29.98,5,2,7,0.00
2013-4-5,77,64,51,20,15,7,25,15,7,30.02,29.65,12,4,21,0.00
2013-4-6,77,65,50,27,21,14,37,20,10,29.85,29.65,10,3,16,0.00
2013-4-7,77,66,51,28,20,13,37,19,9,29.76,29.57,10,3,13,0.00
2013-4-8,76,65,53,30,22,11,37,20,8,29.60,29.18,20,8,24,0.00
2013-4-9,56,47,41,37,32,27,81,57,37,29.84,29.23,14,6,22,0.08
2013-4-10,49,43,38,36,27,21,84,55,37,30.03,29.84,9,3,15,0.00
2013-4-11,65,50,33,31,25,18,64,39,22,30.05,29.83,11,4,18,0.00
2013-4-12,68,58,45,34,30,23,61,37,18,29.88,29.73,8,2,9,0.00
2013-4-13,75,62,43,30,22,12,48,25,10,29.83,29.54,11,4,16,0.00
2013-4-14,78,67,57,26,23,18,29,20,11,29.58,29.41,13,9,21,0.00
2013-4-15,82,66,49,26,20,7,37,19,6,29.61,29.39,13,5,19,0.00
2013-4-16,81,68,54,25,15,-8,27,15,3,29.65,29.43,18,8,27,0.00
2013-4-17,65,54,42,29,20,9,41,27,12,29.91,29.49,14,5,16,0.00
2013-4-18,49,40,32,19,10,2,41,31,15,30.11,29.91,10,4,19,0.00
2013-4-19,64,48,31,8,5,-2,36,19,8,30.40,30.01,5,2,0,0.00
2013-4-20,69,57,45,21,8,-4,27,14,10,30.02,29.78,11,4,0,0.00
2013-4-21,76,59,40,24,18,0,49,24,5,30.10,29.88,5,2,0,0.00
2013-4-22,82,67,49,22,14,4,33,16,5,29.93,29.62,10,5,0,0.00
2013-4-23,68,59,45,31,17,-18,53,23,4,30.00,29.66,11,6,0,0.00
2013-4-24,70,51,31,22,18,14,58,32,13,30.19,30.02,5,2,0,0.00
2013-4-25,76,60,49,30,25,13,39,27,10,30.06,29.70,17,4,32,0.00
2013-4-26,78,63,48,32,20,-4,51,25,4,30.08,29.90,8,2,32,0.00
2013-4-27,78,63,48,30,15,-12,45,22,3,30.13,29.91,6,2,15,0.00
2013-4-28,82,65,44,16,6,-15,32,13,2,30.00,29.73,7,1,10,0.00
2013-4-29,86,68,47,21,15,9,32,15,6,29.81,29.55,12,2,15,0.00
2013-4-30,87,72,57,23,15,1,27,13,4,29.66,29.49,12,4,16,0.00
2013-5-1,83,71,54,29,12,-11,38,12,5,29.98,29.59,12,5,20,0.00
2013-5-2,63,51,41,30,19,12,55,31,14,30.39,29.98,8,3,13,0.00
2013-5-3,68,52,36,18,14,8,41,24,10,30.41,29.98,7,3,13,0.00
2013-5-4,77,62,42,19,11,4,33,15,6,30.00,29.75,10,4,19,0.00
2013-5-5,73,63,53,34,21,9,29,20,12,30.00,29.84,13,6,24,0.00
2013-5-6,71,63,56,40,27,17,52,27,17,29.89,29.81,12,4,24,0.00
2013-5-7,76,64,50,34,31,23,50,30,14,29.93,29.70,14,3,21,0.00
2013-5-8,72,62,50,37,27,16,58,30,12,29.90,29.78,11,3,12,0.00
2013-5-9,74,62,50,37,26,20,44,26,14,30.00,29.83,10,3,17,0.00
2013-5-10,68,60,51,43,37,34,64,45,29,30.20,29.96,11,3,18,0.02
2013-5-11,71,60,47,45,38,29,84,49,21,30.25,30.17,10,2,18,0.00
2013-5-12,80,64,47,38,33,28,60,35,16,30.26,30.00,7,1,8,0.00
2013-5-13,83,69,50,36,31,26,52,27,13,30.14,29.92,7,2,10,0.00
2013-5-14,86,71,56,48,28,16,50,22,11,29.95,29.68,11,3,13,0.00
2013-5-15,90,74,63,44,36,21,49,28,11,29.80,29.59,8,2,16,0.00
2013-5-16,87,75,59,27,18,1,29,14,4,29.79,29.60,10,3,13,0.00
2013-5-17,87,74,55,26,21,9,32,15,7,29.81,29.60,16,3,20,0.00
2013-5-18,77,71,58,32,20,12,28,15,10,29.78,29.58,13,4,26,0.00
2013-5-19,76,66,58,36,31,18,43,28,12,29.78,29.67,12,5,17,0.00
2013-5-20,77,64,53,36,28,1,51,30,5,29.85,29.68,13,4,21,0.00
2013-5-21,82,66,50,36,30,20,53,30,10,29.93,29.70,8,2,12,0.00
2013-5-22,87,73,54,36,21,6,43,18,5,29.78,29.57,8,3,10,0.00
2013-5-23,91,77,57,48,20,6,37,14,5,29.77,29.56,15,4,19,0.00
2013-5-24,88,76,61,50,33,17,50,25,8,29.84,29.64,9,4,16,0.00
2013-5-25,92,76,57,40,21,-2,32,15,3,29.86,29.60,10,3,14,0.00
2013-5-26,89,76,57,27,13,-25,30,12,1,29.83,29.61,9,2,14,0.00
2013-5-27,86,72,59,22,13,-6,21,11,3,29.80,29.61,9,2,15,0.00
2013-5-28,85,72,53,25,14,-5,33,13,3,29.67,29.40,8,2,10,0.00
2013-5-29,82,73,62,38,22,-1,37,18,4,29.54,29.40,12,4,16,0.00
2013-5-30,88,74,55,30,22,15,30,15,7,29.69,29.54,10,3,13,0.00
2013-5-31,88,77,64,39,25,-1,38,17,5,29.74,29.59,11,5,19,0.00
2013-6-1,89,73,53,31,8,-25,26,11,1,29.89,29.75,9,2,20,0.00
2013-6-2,86,75,65,46,37,30,38,25,17,29.88,29.60,11,4,22,0.00
2013-6-3,93,78,65,51,37,8,52,29,5,29.77,29.54,9,4,21,0.00
2013-6-4,94,80,59,33,19,0,27,12,3,29.76,29.57,12,3,13,0.00
2013-6-5,91,79,66,47,33,17,36,21,7,29.72,29.56,11,3,37,0.00
2013-6-6,89,74,58,45,39,24,55,32,10,29.82,29.64,9,3,16,0.00
2013-6-7,91,76,62,51,44,26,65,37,10,29.81,29.54,11,2,19,0.00
2013-6-8,98,80,61,46,35,19,57,26,6,29.69,29.48,11,4,20,0.00
2013-6-9,97,83,68,48,43,32,47,27,11,29.73,29.58,7,2,9,0.00
2013-6-10,100,87,72,50,37,21,44,21,6,29.73,29.53,12,4,13,0.00
2013-6-11,101,88,71,38,22,4,28,11,3,29.74,29.55,8,2,12,0.00
2013-6-12,100,84,65,38,24,11,28,14,4,29.80,29.65,6,1,11,0.00
2013-6-13,97,82,67,52,39,30,43,23,10,29.78,29.59,11,3,21,0.07
2013-6-14,94,80,71,55,50,43,49,37,18,29.73,29.55,11,3,16,0.04
2013-6-15,95,79,63,53,43,29,66,34,11,29.84,29.68,12,3,13,0.00
2013-6-16,95,81,66,49,41,33,52,26,12,29.85,29.69,12,3,22,0.00
2013-6-17,93,80,65,49,41,33,48,28,12,29.87,29.65,12,2,22,0.00
2013-6-18,92,79,66,53,47,37,59,36,16,29.85,29.59,11,6,32,0.00
2013-6-19,97,84,66,51,24,-20,42,19,1,29.70,29.46,13,4,32,0.00
2013-6-20,97,81,61,34,1,-100,29,11,1,29.74,29.53,10,2,15,0.00
2013-6-21,96,81,63,47,20,-20,43,15,1,29.77,29.56,10,3,19,0.00
2013-6-22,94,80,61,28,15,-7,28,10,2,29.75,29.55,10,3,16,0.00
2013-6-23,93,80,60,27,15,4,27,10,4,29.75,29.52,9,3,14,0.00
2013-6-24,95,82,64,31,13,-10,28,10,2,29.72,29.55,10,3,16,0.00
2013-6-25,96,82,63,30,21,7,24,11,5,29.80,29.64,7,2,9,0.00
2013-6-26,100,84,63,36,28,21,35,15,6,29.85,29.67,6,2,9,0.00
2013-6-27,108,89,68,37,29,15,31,14,4,29.84,29.66,9,2,10,0.00
2013-6-28,98,87,78,51,43,33,37,23,13,29.85,29.71,16,4,20,0.00
2013-6-29,100,82,68,51,46,35,52,31,11,29.87,29.67,18,3,18,0.00
2013-6-30,98,81,69,53,47,38,52,32,13,29.89,29.61,13,3,21,0.00
2013-7-1,89,74,63,56,52,44,76,48,23,29.97,29.80,11,4,23,0.01
2013-7-2,88,74,64,55,49,44,59,42,22,30.02,29.76,10,4,23,0.00
2013-7-3,89,73,60,58,53,45,80,53,24,29.95,29.67,13,3,13,0.04
2013-7-4,92,79,65,56,52,45,70,43,21,29.78,29.60,10,3,11,0.00
2013-7-5,95,79,68,66,55,49,88,47,21,29.73,29.52,12,3,18,0.81
2013-7-6,95,76,66,65,57,44,89,58,18,29.79,29.60,9,2,18,0.06
2013-7-7,97,81,66,61,56,47,80,48,19,29.79,29.63,7,2,10,0.02
2013-7-8,96,81,70,62,55,52,76,43,23,29.90,29.70,12,3,14,0.00
2013-7-9,97,80,69,62,57,50,77,49,21,29.92,29.76,15,2,15,0.00
2013-7-10,95,84,71,59,54,48,63,38,21,29.86,29.68,11,4,19,0.00
2013-7-11,88,79,70,61,57,50,72,48,29,29.88,29.68,10,5,17,0.00
2013-7-12,92,80,70,61,56,50,68,47,24,29.82,29.66,9,3,17,0.00
2013-7-13,95,81,69,61,56,46,75,44,20,29.83,29.68,10,3,13,0.09
2013-7-14,98,81,67,64,56,47,86,46,19,29.83,29.57,8,2,21,0.21
2013-7-15,74,70,67,63,57,50,87,65,50,29.96,29.75,10,4,21,0.00
2013-7-16,82,72,64,52,49,47,65,47,31,30.03,29.89,9,3,18,0.00
2013-7-17,82,72,62,56,52,48,78,53,32,30.12,29.98,9,4,15,0.02
2013-7-18,84,75,63,55,54,52,74,50,36,30.06,29.84,9,3,18,0.00
2013-7-19,88,74,65,64,60,55,86,63,36,29.91,29.74,15,2,24,0.46
2013-7-20,88,76,67,63,59,53,83,58,34,29.84,29.66,7,2,12,0.02
2013-7-21,91,78,69,60,56,48,69,49,24,29.79,29.65,11,3,16,0.00
2013-7-22,94,81,68,58,53,44,67,41,19,29.79,29.63,9,2,12,0.00
2013-7-23,97,83,70,56,52,43,59,36,19,29.76,29.60,9,2,12,0.00
2013-7-24,91,77,68,59,54,48,70,45,28,29.90,29.69,16,3,16,0.00
2013-7-25,85,75,66,60,59,58,75,58,40,29.97,29.82,8,3,12,0.00
2013-7-26,89,73,61,64,60,54,92,67,35,30.07,29.85,21,4,21,1.16
2013-7-27,83,74,63,61,58,54,83,59,40,30.08,29.80,9,3,14,0.00
2013-7-28,90,76,68,63,59,50,76,58,27,29.81,29.65,9,2,12,0.05
2013-7-29,92,79,65,62,54,44,85,48,20,29.87,29.76,8,2,16,0.01
2013-7-30,95,82,65,53,49,44,65,35,18,29.98,29.83,5,1,7,0.00
2013-7-31,96,84,70,56,50,40,59,33,15,29.96,29.78,8,2,10,0.00
2013-8-1,86,78,70,65,57,51,78,50,31,29.92,29.78,10,3,13,0.03
2013-8-2,94,77,66,63,59,52,86,59,26,29.88,29.73,10,2,17,0.09
2013-8-3,93,78,64,61,56,50,85,52,24,29.90,29.76,5,1,12,0.00
2013-8-4,93,81,67,63,57,48,81,47,23,29.87,29.70,12,3,18,0.15
2013-8-5,92,77,65,62,58,53,82,55,29,29.89,29.74,11,1,15,0.00
2013-8-6,88,77,68,57,54,48,61,45,26,29.81,29.71,10,2,16,0.00
2013-8-7,83,74,64,58,55,52,77,53,36,29.84,29.76,12,3,18,0.00
2013-8-8,89,75,66,57,52,42,71,47,21,29.86,29.75,9,3,12,0.00
2013-8-9,89,76,63,52,47,36,63,38,16,29.93,29.81,6,2,14,0.00
2013-8-10,84,72,64,56,52,44,70,50,31,30.08,29.89,10,4,17,0.04
2013-8-11,84,72,62,57,54,48,83,56,29,30.10,29.90,7,2,9,0.01
2013-8-12,85,74,66,60,56,53,73,55,36,30.00,29.85,9,3,14,0.00
2013-8-13,88,77,63,57,52,43,75,45,23,29.98,29.82,7,1,9,0.00
2013-8-14,90,77,64,59,52,41,72,45,19,29.93,29.79,16,2,16,0.00
2013-8-15,93,78,64,56,50,36,72,43,15,29.94,29.80,5,2,10,0.00
2013-8-16,98,82,67,52,46,25,55,32,8,29.92,29.76,7,2,9,0.00
2013-8-17,98,84,73,51,46,36,44,29,12,29.88,29.69,10,3,14,0.00
2013-8-18,94,82,70,54,50,44,55,34,19,29.87,29.71,7,2,10,0.00
2013-8-19,97,81,70,58,51,44,65,38,17,29.85,29.68,12,2,15,0.02
2013-8-20,93,76,65,66,57,50,83,56,25,29.87,29.72,10,2,12,0.46
2013-8-21,89,78,65,63,56,49,82,49,27,29.89,29.76,8,2,11,0.00
2013-8-22,91,81,67,54,49,41,61,35,23,29.91,29.72,6,2,9,0.00
2013-8-23,86,76,62,52,47,41,57,36,27,29.88,29.73,8,3,12,0.00
2013-8-24,85,75,67,63,55,50,80,52,31,29.92,29.78,10,2,11,0.18
2013-8-25,86,74,67,63,60,55,81,62,36,30.00,29.91,10,2,17,0.04
2013-8-26,88,77,64,61,56,48,83,52,31,30.02,29.85,9,2,14,0.00
2013-8-27,88,78,64,56,52,46,68,42,27,29.92,29.75,6,2,10,0.00
2013-8-28,88,77,66,57,53,49,64,45,28,29.93,29.81,9,3,12,0.00
2013-8-29,85,77,72,58,56,52,58,48,33,29.97,29.87,10,4,15,0.00
2013-8-30,92,80,70,62,56,44,74,47,20,29.94,29.76,7,2,11,0.00
2013-8-31,95,82,68,58,52,45,66,38,20,29.83,29.64,6,1,9,0.00
2013-9-1,94,80,69,61,52,47,76,40,23,29.88,29.67,11,2,12,0.10
2013-9-2,90,78,69,61,56,51,72,49,28,29.92,29.76,7,1,11,0.00
2013-9-3,92,78,67,61,56,49,75,49,24,29.92,29.75,11,2,19,0.12
2013-9-4,92,79,66,61,50,35,74,41,17,29.98,29.83,6,2,12,0.00
2013-9-5,92,79,62,47,41,36,51,27,16,29.99,29.85,6,2,9,0.00
2013-9-6,90,78,61,48,41,37,46,28,18,29.99,29.78,7,2,12,0.00
2013-9-7,77,71,66,50,48,45,52,44,35,29.89,29.86,1,0,5,0.00
2013-9-8,90,76,62,54,50,48,70,43,25,29.85,29.65,9,2,0,0.00
2013-9-9,89,76,63,56,52,45,73,45,25,29.75,29.59,8,3,0,0.00
2013-9-10,71,67,63,62,58,54,94,72,57,29.92,29.72,6,1,16,0.86
2013-9-11,83,70,62,63,59,49,95,70,33,29.98,29.86,7,2,16,0.00
2013-9-12,73,66,62,66,60,58,94,82,70,29.95,29.85,6,2,10,0.73
2013-9-13,74,65,61,62,60,57,94,84,55,29.95,29.83,7,2,10,0.76
2013-9-14,75,66,58,61,58,53,95,78,53,29.92,29.80,13,2,13,1.05
2013-9-15,81,67,58,59,55,50,93,68,35,29.98,29.87,6,2,11,0.21
2013-9-16,79,69,58,58,55,51,89,64,40,30.05,29.90,7,2,11,0.00
2013-9-17,81,71,60,59,56,51,87,62,35,29.96,29.74,8,3,12,0.00
2013-9-18,84,73,66,60,57,51,77,59,35,29.80,29.65,8,3,10,0.00
2013-9-19,86,73,61,61,54,45,90,57,25,29.81,29.69,7,1,7,0.23
2013-9-20,82,71,61,55,52,45,67,52,35,29.90,29.77,6,2,9,0.00
2013-9-21,80,69,58,57,54,50,86,60,37,29.92,29.73,9,3,13,0.00
2013-9-22,80,68,60,58,52,42,91,60,31,29.77,29.44,21,5,31,0.28
2013-9-23,74,62,49,42,36,32,68,40,22,30.00,29.65,10,3,14,0.00
2013-9-24,77,63,51,47,42,37,69,48,26,30.10,29.88,5,1,12,0.00
2013-9-25,84,68,50,48,44,36,82,47,22,29.89,29.57,12,4,16,0.00
2013-9-26,83,70,54,45,40,33,65,38,18,29.69,29.54,14,5,18,0.00
2013-9-27,72,63,49,50,42,34,57,47,40,29.96,29.60,13,4,17,0.00
2013-9-28,72,56,39,35,27,14,71,38,11,30.21,29.96,6,1,10,0.00
2013-9-29,79,59,41,34,29,22,73,38,12,30.22,29.98,4,1,7,0.00
2013-9-30,85,65,47,36,32,24,61,33,12,30.00,29.78,4,1,6,0.00
2013-10-1,86,66,47,37,30,14,65,31,7,29.93,29.79,4,0,4,0.00
2013-10-2,82,64,46,38,32,21,66,34,11,29.94,29.76,4,1,7,0.00
2013-10-3,78,65,48,38,34,26,68,36,15,29.84,29.62,9,2,12,0.00
2013-10-4,64,57,50,36,22,8,48,27,13,30.10,29.70,12,6,18,0.00
2013-10-5,63,52,40,24,20,15,52,30,16,30.28,30.10,9,3,16,0.00
2013-10-6,73,54,37,29,24,18,60,33,14,30.36,30.19,3,0,16,0.00
2013-10-7,75,58,41,31,26,19,58,33,12,30.25,30.03,6,1,7,0.00
2013-10-8,79,63,46,33,31,28,59,33,17,30.03,29.73,7,2,13,0.00
2013-10-9,76,62,46,39,34,27,64,37,18,29.85,29.70,10,3,15,0.00
2013-10-10,70,58,45,48,37,28,72,47,28,29.92,29.59,24,6,35,0.14
2013-10-11,64,50,36,35,32,31,83,54,29,30.08,29.92,9,1,35,0.00
2013-10-12,72,56,40,39,35,32,76,49,25,30.18,30.00,5,2,11,0.00
2013-10-13,78,62,46,45,40,35,72,47,21,30.09,29.82,14,4,23,0.00
2013-10-14,70,60,50,46,31,18,71,36,16,29.97,29.83,11,3,23,0.00
2013-10-15,66,52,40,34,29,24,62,42,29,30.07,29.90,11,4,18,0.00
2013-10-16,64,53,45,36,29,14,66,43,19,30.11,30.00,7,3,28,0.00
2013-10-17,66,50,34,28,22,18,65,37,16,30.19,29.96,6,1,7,0.00
2013-10-18,64,51,36,27,20,12,67,33,13,30.18,29.97,10,3,17,0.00
2013-10-19,67,49,35,30,25,16,77,44,16,30.24,30.05,4,1,6,0.00
2013-10-20,73,55,36,26,20,12,63,29,11,30.09,29.84,9,2,11,0.00
2013-10-21,66,54,42,33,28,20,62,39,22,30.16,29.94,5,1,9,0.00
2013-10-22,70,52,36,30,26,16,71,41,13,30.30,30.14,4,0,6,0.00
2013-10-23,71,54,38,31,27,22,64,38,19,30.24,30.06,5,1,7,0.00
2013-10-24,75,57,43,49,33,27,81,43,20,30.20,30.01,11,2,14,0.05
2013-10-25,66,55,48,49,45,40,88,70,45,30.18,30.02,9,3,17,0.07
2013-10-26,69,54,40,45,40,37,92,64,34,30.31,30.15,4,1,17,0.00
2013-10-27,69,55,40,41,37,33,89,56,27,30.22,29.88,6,1,8,0.00
2013-10-28,71,58,47,42,34,20,73,45,18,29.90,29.77,8,2,9,0.00
2013-10-29,69,60,51,29,26,23,38,28,19,29.93,29.71,16,6,19,0.00
2013-10-30,59,52,42,40,33,26,68,50,33,29.97,29.72,10,2,14,0.05
2013-10-31,56,46,35,32,28,24,77,51,30,30.16,29.97,11,4,15,0.00
2013-11-1,62,50,38,29,27,24,67,43,24,30.28,30.12,8,2,11,0.00
2013-11-2,64,50,36,30,27,22,71,44,21,30.36,30.06,7,1,11,0.00
2013-11-3,68,56,46,38,30,24,62,39,23,30.06,29.71,10,2,12,0.00
2013-11-4,67,56,40,43,37,33,77,51,32,29.90,29.72,11,4,18,0.00
2013-11-5,56,46,36,44,33,18,89,61,41,30.30,29.75,10,3,18,0.14
2013-11-6,56,43,28,20,16,11,69,37,18,30.54,30.31,6,2,10,0.00
2013-11-7,61,45,31,27,24,18,71,46,22,30.57,30.33,5,1,12,0.00
2013-11-8,63,46,30,29,27,24,85,51,23,30.34,30.10,5,1,10,0.00
2013-11-9,70,50,33,30,27,23,76,46,18,30.27,30.15,2,0,6,0.00
2013-11-10,68,51,37,30,27,22,69,44,17,30.34,30.20,4,1,8,0.00
2013-11-11,70,53,39,30,26,22,65,39,17,30.36,30.20,7,2,9,0.00
2013-11-12,60,48,39,36,32,24,74,55,37,30.57,30.36,5,1,9,0.00
2013-11-13,55,47,36,40,37,33,86,70,53,30.55,30.20,5,1,9,0.00
2013-11-14,62,48,36,41,36,30,91,65,35,30.20,29.97,4,0,7,0.00
2013-11-15,61,46,33,46,35,26,90,65,38,29.98,29.72,14,4,17,0.08
2013-11-16,62,52,45,45,37,29,90,59,33,29.84,29.62,8,3,13,0.01
2013-11-17,60,50,37,34,32,30,76,51,35,30.18,29.84,9,3,12,0.00
2013-11-18,60,45,36,33,31,29,77,61,33,30.29,30.16,2,0,9,0.00
2013-11-19,63,46,31,37,33,28,88,64,33,30.20,29.92,4,1,8,0.00
2013-11-20,50,45,40,43,38,31,93,76,55,29.99,29.89,5,1,8,0.18
2013-11-21,58,48,42,46,43,40,95,85,59,30.12,29.98,5,1,8,0.21
2013-11-22,44,38,36,39,30,26,86,73,63,30.46,30.10,9,2,19,0.02
2013-11-23,40,36,28,32,27,19,91,71,55,30.54,30.41,16,3,21,0.02
2013-11-24,32,30,24,26,23,18,90,77,68,30.49,30.31,9,2,20,0.04
2013-11-25,48,36,28,31,28,25,91,76,49,30.48,30.27,6,2,20,0.01
2013-11-26,50,37,26,31,28,23,92,72,46,30.61,30.48,3,0,8,0.00
2013-11-27,47,37,26,29,27,23,89,70,48,30.54,30.33,4,1,7,0.00
2013-11-28,52,38,28,28,26,24,89,66,36,30.43,30.31,3,0,4,0.00
2013-11-29,56,40,27,32,28,24,89,67,37,30.51,30.36,3,0,6,0.00
2013-11-30,58,43,32,33,31,27,85,66,39,30.44,30.26,4,1,9,0.00
2013-12-1,50,40,34,33,31,28,83,69,51,30.40,30.30,8,3,14,0.00
2013-12-2,54,41,32,30,28,26,77,61,39,30.33,29.96,7,1,10,0.00
2013-12-3,65,48,30,29,22,13,81,44,13,29.96,29.65,10,3,14,0.00
2013-12-4,61,48,38,32,24,16,66,41,21,29.86,29.54,17,7,26,0.00
2013-12-5,39,28,16,32,24,12,94,85,52,30.19,29.82,6,2,6,0.06
2013-12-6,37,24,14,20,15,11,92,70,39,30.45,30.20,4,1,10,0.10
2013-12-7,34,27,18,29,21,12,86,79,72,30.38,30.06,5,2,7,0.00
2013-12-8,36,31,27,28,18,11,85,57,44,30.17,29.98,11,4,18,0.00
2013-12-9,31,26,19,18,10,2,70,50,32,30.71,30.17,12,4,17,0.00
2013-12-10,36,24,13,12,6,2,67,47,27,30.76,30.54,9,2,11,0.00
2013-12-11,45,29,16,19,14,10,77,56,29,30.75,30.57,6,1,10,0.00
2013-12-12,43,32,23,22,18,12,73,56,40,30.73,30.32,4,1,8,0.00
2013-12-13,48,38,32,33,27,21,87,64,51,30.31,30.09,9,2,12,0.00
2013-12-14,48,37,28,21,20,17,71,50,30,30.55,30.24,7,2,11,0.00
2013-12-15,49,38,25,22,20,18,75,49,31,30.57,30.43,10,3,14,0.00
2013-12-16,57,42,26,24,22,20,77,48,26,30.54,30.39,7,1,10,0.00
2013-12-17,59,41,28,25,23,21,77,52,25,30.55,30.38,5,1,8,0.00
2013-12-18,55,39,28,26,24,21,78,57,31,30.39,30.03,5,0,6,0.00
2013-12-19,57,43,29,28,24,19,79,51,28,30.03,29.76,5,1,9,0.00
2013-12-20,46,33,29,27,23,20,77,66,45,29.86,29.81,3,0,9,0.00
2013-12-25,49,36,28,24,19,14,71,51,27,30.55,30.42,5,1,0,0.00
2013-12-26,52,35,20,20,16,13,77,50,26,30.59,30.42,4,1,0,0.00
2013-12-27,55,38,28,21,17,14,69,45,22,30.54,30.36,5,1,0,0.00
2013-12-28,49,35,22,21,18,15,76,53,28,30.36,30.08,4,1,0,0.00
2013-12-29,46,39,28,24,23,21,77,52,36,30.31,30.11,7,1,0,0.00
2013-12-30,52,38,25,22,15,9,78,43,19,30.49,30.31,6,1,0,0.00
2013-12-31,51,34,24,20,17,15,70,51,26,30.49,30.29,4,1,9,0.00
2014-1-1,54,40,25,23,19,15,76,48,22,30.43,30.22,15,3,25,0.00
2014-1-2,52,37,23,24,17,11,78,49,20,30.52,30.37,4,1,8,0.00